createdAt,value
2023-02-03T00:02:07.210Z,1.60
2023-02-03T00:04:53.862Z,1.63
2023-02-03T00:07:40.516Z,1.50
2023-02-03T00:10:27.368Z,1.67
2023-02-03T00:13:14.379Z,1.67
2023-02-03T00:16:01.967Z,1.60
2023-02-03T00:18:48.552Z,1.57
2023-02-03T00:21:35.086Z,1.67
2023-02-03T00:24:23.394Z,1.53
2023-02-03T00:27:09.638Z,1.33
2023-02-03T00:29:56.051Z,1.57
2023-02-03T00:32:42.725Z,1.70
2023-02-03T00:35:31.607Z,1.73
2023-02-03T00:38:17.863Z,1.80
2023-02-03T00:41:04.329Z,1.97
2023-02-03T00:43:50.673Z,1.70
2023-02-03T00:46:37.054Z,1.40
2023-02-03T00:49:23.443Z,2.13
2023-02-03T00:52:09.632Z,1.77
2023-02-03T00:54:58.036Z,1.60
2023-02-03T00:57:44.279Z,1.60
2023-02-03T01:00:30.429Z,1.90
2023-02-03T01:03:16.731Z,1.77
2023-02-03T01:06:14.185Z,1.70
2023-02-03T01:09:02.990Z,1.80
2023-02-03T01:11:49.675Z,2.40
2023-02-03T01:14:35.900Z,2.37
2023-02-03T01:17:24.283Z,1.70
2023-02-03T01:20:16.412Z,1.37
2023-02-03T01:23:02.644Z,1.83
2023-02-03T01:25:49.442Z,1.57
2023-02-03T01:28:36.498Z,1.50
2023-02-03T01:31:29.629Z,1.80
2023-02-03T01:34:17.050Z,1.40
2023-02-03T01:37:03.740Z,1.77
2023-02-03T01:39:49.851Z,1.60
2023-02-03T01:42:36.223Z,1.30
2023-02-03T01:45:22.505Z,2.53
2023-02-03T01:48:09.145Z,1.77
2023-02-03T01:50:55.474Z,1.23
2023-02-03T01:53:42.169Z,1.50
2023-02-03T01:56:32.499Z,1.57
2023-02-03T01:59:20.547Z,1.73
2023-02-03T02:02:07.566Z,1.57
2023-02-03T02:05:24.400Z,1.90
2023-02-03T02:08:12.886Z,1.40
2023-02-03T02:11:00.943Z,1.90
2023-02-03T02:13:50.322Z,1.20
2023-02-03T02:17:00.652Z,1.70
2023-02-03T02:19:58.541Z,1.17
2023-02-03T02:23:03.812Z,1.40
2023-02-03T02:26:19.785Z,1.43
2023-02-03T02:29:51.283Z,1.33
2023-02-03T02:33:07.299Z,1.20
2023-02-03T02:36:07.793Z,1.20
2023-02-03T02:39:05.872Z,1.40
2023-02-03T02:42:06.547Z,1.20
2023-02-03T02:44:59.063Z,1.10
2023-02-03T02:47:45.657Z,1.10
2023-02-03T02:50:38.917Z,1.20
2023-02-03T02:53:29.003Z,1.43
2023-02-03T02:56:17.497Z,1.33
2023-02-03T02:59:06.228Z,1.00
2023-02-03T03:01:52.629Z,1.40
2023-02-03T03:04:40.781Z,1.40
2023-02-03T03:07:29.042Z,1.70
2023-02-03T03:10:22.115Z,1.23
2023-02-03T03:13:13.384Z,1.20
2023-02-03T03:16:05.084Z,0.93
2023-02-03T03:18:58.725Z,1.40
2023-02-03T03:21:50.940Z,1.10
2023-02-03T03:24:46.097Z,1.03
2023-02-03T03:27:40.316Z,1.30
2023-02-03T03:30:33.090Z,1.20
2023-02-03T03:33:21.533Z,1.33
2023-02-03T03:36:14.370Z,1.10
2023-02-03T03:39:30.327Z,1.17
2023-02-03T03:42:41.881Z,1.40
2023-02-03T03:45:49.401Z,0.90
2023-02-03T03:48:48.042Z,1.70
2023-02-03T03:51:41.038Z,1.40
2023-02-03T03:54:30.221Z,1.50
2023-02-03T03:57:26.003Z,1.50
2023-02-03T04:00:19.116Z,1.10
2023-02-03T04:03:15.913Z,1.13
2023-02-03T04:06:02.577Z,1.27
2023-02-03T04:08:48.784Z,1.30
2023-02-03T04:11:53.891Z,1.20
2023-02-03T04:14:40.859Z,1.00
2023-02-03T04:17:27.398Z,1.23
2023-02-03T04:20:14.346Z,1.37
2023-02-03T04:23:00.740Z,0.97
2023-02-03T04:25:47.002Z,1.37
2023-02-03T04:28:33.477Z,1.33
2023-02-03T04:31:19.760Z,1.40
2023-02-03T04:34:06.579Z,1.20
2023-02-03T04:36:53.022Z,1.10
2023-02-03T04:39:38.970Z,1.20
2023-02-03T04:42:25.783Z,1.60
2023-02-03T04:45:12.799Z,1.40
2023-02-03T04:47:58.880Z,1.10
2023-02-03T04:50:45.319Z,1.00
2023-02-03T04:53:32.257Z,1.30
2023-02-03T04:56:18.716Z,0.90
2023-02-03T04:59:05.244Z,1.20
2023-02-03T05:01:51.712Z,1.17
2023-02-03T05:04:37.977Z,1.93
2023-02-03T05:07:24.226Z,1.10
2023-02-03T05:10:10.876Z,1.10
2023-02-03T05:12:57.203Z,1.57
2023-02-03T05:15:43.455Z,1.27
2023-02-03T05:18:29.727Z,1.17
2023-02-03T05:21:16.483Z,1.57
2023-02-03T05:24:06.774Z,1.30
2023-02-03T05:26:53.069Z,1.10
2023-02-03T05:29:39.345Z,1.10
2023-02-03T05:32:25.910Z,1.27
2023-02-03T05:35:12.070Z,1.50
2023-02-03T05:37:59.473Z,1.10
2023-02-03T05:41:09.801Z,1.37
2023-02-03T05:43:56.051Z,1.73
2023-02-03T05:46:42.308Z,1.40
2023-02-03T05:49:28.912Z,1.97
2023-02-03T05:52:15.148Z,1.20
2023-02-03T05:55:01.369Z,1.43
2023-02-03T05:57:47.633Z,1.30
2023-02-03T06:00:34.203Z,1.20
2023-02-03T06:03:20.723Z,1.37
2023-02-03T06:06:07.186Z,1.33
2023-02-03T06:08:56.971Z,1.30
2023-02-03T06:11:43.196Z,1.30
2023-02-03T06:14:29.960Z,1.30
2023-02-03T06:17:16.064Z,1.53
2023-02-03T06:20:07.527Z,1.27
2023-02-03T06:22:53.689Z,1.60
2023-02-03T06:25:40.200Z,1.30
2023-02-03T06:28:27.176Z,1.30
2023-02-03T06:31:13.751Z,1.63
2023-02-03T06:34:02.461Z,1.80
2023-02-03T06:36:49.213Z,2.10
2023-02-03T06:39:35.754Z,2.37
2023-02-03T06:42:21.983Z,2.53
2023-02-03T06:45:08.859Z,1.47
2023-02-03T06:47:54.968Z,1.67
2023-02-03T06:50:41.981Z,1.80
2023-02-03T06:53:28.320Z,1.40
2023-02-03T06:56:14.541Z,1.33
2023-02-03T06:59:01.044Z,1.90
2023-02-03T07:01:47.551Z,1.60
2023-02-03T07:04:33.814Z,1.93
2023-02-03T07:07:20.356Z,1.27
2023-02-03T07:10:07.384Z,1.30
2023-02-03T07:12:53.684Z,1.30
2023-02-03T07:15:39.960Z,1.17
2023-02-03T07:21:32.585Z,1.17
2023-02-03T07:24:18.811Z,1.27
2023-02-03T07:27:05.178Z,1.27
2023-02-03T07:29:51.329Z,1.27
2023-02-03T07:32:37.820Z,1.07
2023-02-03T07:35:24.322Z,1.37
2023-02-03T07:38:10.672Z,1.20
2023-02-03T07:40:56.981Z,1.20
2023-02-03T07:43:43.244Z,1.73
2023-02-03T07:46:29.899Z,1.27
2023-02-03T07:49:16.752Z,1.20
2023-02-03T07:52:03.220Z,1.90
2023-02-03T07:54:49.473Z,1.60
2023-02-03T07:57:37.281Z,1.27
2023-02-03T08:00:24.060Z,1.33
2023-02-03T08:03:10.653Z,1.00
2023-02-03T08:05:57.065Z,1.33
2023-02-03T08:08:43.851Z,1.00
2023-02-03T08:11:30.234Z,1.13
2023-02-03T08:14:16.503Z,1.13
2023-02-03T08:17:02.777Z,1.10
2023-02-03T08:19:49.302Z,1.20
2023-02-03T08:22:35.741Z,1.20
2023-02-03T08:25:22.795Z,1.43
2023-02-03T08:28:09.303Z,1.17
2023-02-03T08:30:56.569Z,1.40
2023-02-03T08:33:43.094Z,1.20
2023-02-03T08:36:29.386Z,1.30
2023-02-03T08:39:15.973Z,1.37
2023-02-03T08:42:04.049Z,1.07
2023-02-03T08:44:50.706Z,1.80
2023-02-03T08:47:37.377Z,1.10
2023-02-03T08:50:24.296Z,1.27
2023-02-03T08:53:11.141Z,1.33
2023-02-03T08:55:57.680Z,1.20
2023-02-03T08:58:43.972Z,1.33
2023-02-03T09:01:30.900Z,1.40
2023-02-03T09:04:19.332Z,1.70
2023-02-03T09:07:05.787Z,1.90
2023-02-03T09:09:52.133Z,1.40
2023-02-03T09:12:38.286Z,1.30
2023-02-03T09:15:24.724Z,1.07
2023-02-03T09:18:10.851Z,1.10
2023-02-03T09:21:13.889Z,0.80
2023-02-03T09:24:07.867Z,1.27
2023-02-03T09:26:55.882Z,1.17
2023-02-03T09:29:42.143Z,1.20
2023-02-03T09:32:28.578Z,1.27
2023-02-03T09:35:15.448Z,1.10
2023-02-03T09:38:02.093Z,1.40
2023-02-03T09:41:09.352Z,1.10
2023-02-03T09:44:15.670Z,0.80
2023-02-03T09:47:09.806Z,0.90
2023-02-03T09:50:00.358Z,1.00
2023-02-03T09:52:47.793Z,2.13
2023-02-03T09:55:39.509Z,1.10
2023-02-03T09:58:29.063Z,1.10
2023-02-03T10:01:17.333Z,1.40
2023-02-03T10:04:27.791Z,1.23
2023-02-03T10:07:25.547Z,1.00
2023-02-03T10:10:26.362Z,1.50
2023-02-03T10:13:38.711Z,1.50
2023-02-03T10:16:38.543Z,1.37
2023-02-03T10:19:48.335Z,0.60
2023-02-03T10:22:50.761Z,1.00
2023-02-03T10:25:43.911Z,0.80
2023-02-03T10:28:40.108Z,1.07
2023-02-03T10:31:28.655Z,0.90
2023-02-03T10:34:17.499Z,1.40
2023-02-03T10:37:13.779Z,0.80
2023-02-03T10:40:01.585Z,0.83
2023-02-03T10:43:07.697Z,1.00
2023-02-03T10:45:54.137Z,0.83
2023-02-03T10:48:40.723Z,1.00
2023-02-03T10:51:31.859Z,0.63
2023-02-03T10:54:36.384Z,0.60
2023-02-03T10:57:23.161Z,1.00
2023-02-03T11:00:29.118Z,0.70
2023-02-03T11:03:26.541Z,0.67
2023-02-03T11:06:15.948Z,0.90
2023-02-03T11:09:02.897Z,0.77
2023-02-03T11:12:19.325Z,0.53
2023-02-03T11:15:06.072Z,1.10
2023-02-03T11:17:52.360Z,1.07
2023-02-03T11:20:38.525Z,0.90
2023-02-03T11:23:24.977Z,0.87
2023-02-03T11:26:17.903Z,1.00
2023-02-03T11:29:08.083Z,0.87
2023-02-03T11:31:57.466Z,0.80
2023-02-03T11:35:02.111Z,0.77
2023-02-03T11:37:51.516Z,0.80
2023-02-03T11:40:39.950Z,0.70
2023-02-03T11:43:29.043Z,0.77
2023-02-03T11:46:16.099Z,0.73
2023-02-03T11:49:34.183Z,0.80
2023-02-03T11:52:32.477Z,0.67
2023-02-03T11:55:54.630Z,0.90
2023-02-03T11:58:47.155Z,0.73
2023-02-03T12:01:55.575Z,0.77
2023-02-03T12:04:59.164Z,0.60
2023-02-03T12:08:18.307Z,2.43
2023-02-03T12:11:19.500Z,0.87
2023-02-03T12:14:15.182Z,1.20
2023-02-03T12:17:25.971Z,1.00
2023-02-03T12:20:31.503Z,0.70
2023-02-03T12:23:28.360Z,1.17
2023-02-03T12:26:28.550Z,0.90
2023-02-03T12:29:21.758Z,1.57
2023-02-03T12:32:26.968Z,1.13
2023-02-03T12:35:21.490Z,1.20
2023-02-03T12:38:18.513Z,0.67
2023-02-03T12:41:12.155Z,0.90
2023-02-03T12:44:05.653Z,0.80
2023-02-03T12:47:12.649Z,1.27
2023-02-03T12:50:27.588Z,0.67
2023-02-03T12:53:24.836Z,0.63
2023-02-03T12:56:27.721Z,0.60
2023-02-03T12:59:22.394Z,0.90
2023-02-03T13:02:26.137Z,1.17
2023-02-03T13:05:39.125Z,0.90
2023-02-03T13:08:37.018Z,1.30
2023-02-03T13:11:33.582Z,0.97
2023-02-03T13:14:44.177Z,0.70
2023-02-03T13:17:43.764Z,0.83
2023-02-03T13:20:35.911Z,1.00
2023-02-03T13:23:23.586Z,0.90
2023-02-03T13:26:28.062Z,1.00
2023-02-03T13:29:42.287Z,1.20
2023-02-03T13:32:57.360Z,0.83
2023-02-03T13:36:02.209Z,1.00
2023-02-03T13:39:10.067Z,0.93
2023-02-03T13:42:13.897Z,1.00
2023-02-03T13:45:24.076Z,1.10
2023-02-03T13:48:28.184Z,1.10
2023-02-03T13:51:22.234Z,1.40
2023-02-03T13:54:16.847Z,0.90
2023-02-03T13:57:06.791Z,1.10
2023-02-03T13:59:53.127Z,1.30
2023-02-03T14:02:45.662Z,4.17
2023-02-03T14:05:50.853Z,1.30
2023-02-03T14:08:37.017Z,1.00
2023-02-03T14:11:35.764Z,1.60
2023-02-03T14:14:22.305Z,1.20
2023-02-03T14:17:49.123Z,1.33
2023-02-03T14:20:42.095Z,1.20
2023-02-03T14:23:39.241Z,1.43
2023-02-03T14:26:39.775Z,0.80
2023-02-03T14:29:32.398Z,0.50
2023-02-03T14:32:18.858Z,1.67
2023-02-03T14:35:17.253Z,1.80
2023-02-03T14:38:07.263Z,0.87
2023-02-03T14:41:03.021Z,0.80
2023-02-03T14:44:09.512Z,0.97
2023-02-03T14:46:59.714Z,3.10
2023-02-03T14:49:59.258Z,1.00
2023-02-03T14:53:07.460Z,0.83
2023-02-03T14:56:10.125Z,0.70
2023-02-03T14:59:04.723Z,0.70
2023-02-03T15:01:50.912Z,0.60
2023-02-03T15:04:37.353Z,0.97
2023-02-03T15:07:36.146Z,0.83
2023-02-03T15:10:23.756Z,1.00
2023-02-03T15:13:31.229Z,0.70
2023-02-03T15:16:23.609Z,1.00
2023-02-03T15:19:20.612Z,1.00
2023-02-03T15:22:28.112Z,0.67
2023-02-03T15:25:19.004Z,0.63
2023-02-03T15:28:13.949Z,0.80
2023-02-03T15:31:00.477Z,0.60
2023-02-03T15:33:49.956Z,0.50
2023-02-03T15:36:48.482Z,0.40
2023-02-03T15:39:39.519Z,0.60
2023-02-03T15:42:48.560Z,1.23
2023-02-03T15:46:02.560Z,0.80
2023-02-03T15:48:54.711Z,0.47
2023-02-03T15:51:51.965Z,0.77
2023-02-03T15:54:43.091Z,1.10
2023-02-03T15:57:34.456Z,1.00
2023-02-03T16:00:26.408Z,3.70
2023-02-03T16:03:21.416Z,1.60
2023-02-03T16:06:30.306Z,2.30
2023-02-03T16:09:28.794Z,0.90
2023-02-03T16:12:16.829Z,1.60
2023-02-03T16:15:04.160Z,0.90
2023-02-03T16:17:59.502Z,1.47
2023-02-03T16:20:51.150Z,1.10
2023-02-03T16:23:38.240Z,1.23
2023-02-03T16:26:27.314Z,0.70
2023-02-03T16:29:33.342Z,0.70
2023-02-03T16:32:39.826Z,1.40
2023-02-03T16:35:45.269Z,1.23
2023-02-03T16:38:50.141Z,1.73
2023-02-03T16:41:56.146Z,0.77
2023-02-03T16:45:01.268Z,2.73
2023-02-03T16:48:06.246Z,4.47
2023-02-03T16:50:59.718Z,2.00
2023-02-03T16:53:48.230Z,1.53
2023-02-03T16:56:35.034Z,2.20
2023-02-03T16:59:21.225Z,0.87
2023-02-03T17:02:08.023Z,1.70
2023-02-03T17:04:54.698Z,1.30
2023-02-03T17:07:41.206Z,3.00
2023-02-03T17:10:27.512Z,1.53
2023-02-03T17:13:15.948Z,1.40
2023-02-03T17:16:08.629Z,4.63
2023-02-03T17:18:54.902Z,1.70
2023-02-03T17:21:41.097Z,1.50
2023-02-03T17:24:27.630Z,2.00
2023-02-03T17:27:14.251Z,2.67
2023-02-03T17:30:00.686Z,2.30
2023-02-03T17:32:47.027Z,1.40
2023-02-03T17:35:33.291Z,1.23
2023-02-03T17:38:19.943Z,2.67
2023-02-03T17:53:30.707Z,3.93
2023-02-03T17:56:19.282Z,1.27
2023-02-03T17:59:05.823Z,2.00
2023-02-03T18:01:53.219Z,1.60
2023-02-03T18:04:39.465Z,1.00
2023-02-03T18:07:25.702Z,1.17
2023-02-03T18:10:12.149Z,1.20
2023-02-03T18:12:58.323Z,1.57
2023-02-03T18:15:44.499Z,1.30
2023-02-03T18:18:30.998Z,1.43
2023-02-03T18:21:17.452Z,2.20
2023-02-03T18:24:05.739Z,1.20
2023-02-03T18:26:52.250Z,1.13
2023-02-03T18:29:40.798Z,1.33
2023-02-03T18:32:27.077Z,1.53
2023-02-03T18:35:16.759Z,1.40
2023-02-03T18:38:03.400Z,1.20
2023-02-03T18:40:49.575Z,1.00
2023-02-03T18:43:36.227Z,1.83
2023-02-03T18:46:27.617Z,2.27
2023-02-03T18:49:14.148Z,2.83
2023-02-03T18:52:00.479Z,1.40
2023-02-03T18:54:46.942Z,1.50
2023-02-03T18:57:33.106Z,1.50
2023-02-03T19:00:20.106Z,1.40
2023-02-03T19:03:07.702Z,1.80
2023-02-03T19:05:54.558Z,1.90
2023-02-03T19:08:41.025Z,2.77
2023-02-03T19:11:27.425Z,2.40
2023-02-03T19:14:14.571Z,2.27
2023-02-03T19:17:01.697Z,1.80
2023-02-03T19:19:48.378Z,1.60
2023-02-03T19:22:34.874Z,2.43
2023-02-03T19:25:21.090Z,2.20
2023-02-03T19:28:14.155Z,2.30
2023-02-03T19:31:10.637Z,1.90
2023-02-03T19:33:58.966Z,2.23
2023-02-03T19:36:47.073Z,1.40
2023-02-03T19:39:33.708Z,2.10
2023-02-03T19:42:19.919Z,2.77
2023-02-03T19:45:07.007Z,2.40
2023-02-03T19:47:53.432Z,1.57
2023-02-03T19:50:40.798Z,1.60
2023-02-03T19:53:27.177Z,1.97
2023-02-03T19:56:13.548Z,1.37
2023-02-03T19:58:59.685Z,1.63
2023-02-03T20:01:45.974Z,1.50
2023-02-03T20:04:33.920Z,1.77
2023-02-03T20:07:20.472Z,2.33
2023-02-03T20:10:07.338Z,3.80
2023-02-03T20:12:55.083Z,3.10
2023-02-03T20:15:41.951Z,1.40
2023-02-03T20:18:28.175Z,1.40
2023-02-03T20:21:14.369Z,1.53
2023-02-03T20:24:00.848Z,2.07
2023-02-03T20:26:47.192Z,1.87
2023-02-03T20:29:33.488Z,1.23
2023-02-03T20:32:20.511Z,1.40
2023-02-03T20:35:07.240Z,2.63
2023-02-03T20:37:53.690Z,1.10
2023-02-03T20:40:39.869Z,1.27
2023-02-03T20:43:27.864Z,1.40
2023-02-03T20:46:18.338Z,1.10
2023-02-03T20:49:04.431Z,1.73
2023-02-03T20:51:50.938Z,1.90
2023-02-03T20:54:37.236Z,1.30
2023-02-03T20:57:23.402Z,1.20
2023-02-03T21:00:19.003Z,1.23
2023-02-03T21:03:24.176Z,1.33
2023-02-03T21:06:18.930Z,1.90
2023-02-03T21:09:20.027Z,3.00
2023-02-03T21:12:13.464Z,2.10
2023-02-03T21:14:59.939Z,1.80
2023-02-03T21:17:46.529Z,2.00
2023-02-03T21:20:33.249Z,2.17
2023-02-03T21:23:24.252Z,1.57
2023-02-03T21:26:27.283Z,1.70
2023-02-03T21:29:26.662Z,1.67
2023-02-03T21:32:14.145Z,1.70
2023-02-03T21:35:00.742Z,1.90
2023-02-03T21:37:47.241Z,1.93
2023-02-03T21:40:34.978Z,2.10
2023-02-03T21:43:23.250Z,2.63
2023-02-03T21:46:17.608Z,2.43
2023-02-03T21:49:04.232Z,1.93
2023-02-03T21:51:50.670Z,2.37
2023-02-03T21:54:41.811Z,2.40
2023-02-03T21:57:28.259Z,2.27
2023-02-03T22:00:34.533Z,2.20
2023-02-03T22:03:30.452Z,2.70
2023-02-03T22:06:26.023Z,2.30
2023-02-03T22:09:24.536Z,2.87
2023-02-03T22:12:11.049Z,2.90
2023-02-03T22:14:57.235Z,2.67
2023-02-03T22:17:43.764Z,3.20
2023-02-03T22:20:30.664Z,2.57
2023-02-03T22:23:17.124Z,2.50
2023-02-03T22:26:03.371Z,2.60
2023-02-03T22:28:49.869Z,2.60
2023-02-03T22:31:36.300Z,2.60
2023-02-03T22:34:23.410Z,2.53
2023-02-03T22:37:09.720Z,2.63
2023-02-03T22:39:55.992Z,2.50
2023-02-03T22:42:42.646Z,3.20
2023-02-03T22:45:29.463Z,2.40
2023-02-03T22:48:15.712Z,2.87
2023-02-03T22:51:02.497Z,2.53
2023-02-03T22:53:49.130Z,2.90
2023-02-03T22:56:35.221Z,2.77
2023-02-03T22:59:21.799Z,2.60
2023-02-03T23:02:08.305Z,2.90
2023-02-03T23:04:54.684Z,2.60
2023-02-03T23:07:41.270Z,3.00
2023-02-03T23:10:32.109Z,3.47
2023-02-03T23:13:18.552Z,2.83
2023-02-03T23:16:05.115Z,2.87
2023-02-03T23:18:51.374Z,3.10
2023-02-03T23:21:37.891Z,3.53
2023-02-03T23:24:24.159Z,3.47
2023-02-03T23:27:11.098Z,3.00
2023-02-03T23:29:57.440Z,3.33
2023-02-03T23:32:43.664Z,2.90
2023-02-03T23:35:45.199Z,3.40
2023-02-03T23:38:33.298Z,2.87
2023-02-03T23:41:19.693Z,2.87
2023-02-03T23:44:05.917Z,3.00
2023-02-03T23:46:52.146Z,2.97
2023-02-03T23:49:38.350Z,3.37
2023-02-03T23:52:24.900Z,3.30
2023-02-03T23:55:14.711Z,3.50
2023-02-03T23:58:01.302Z,3.10
